createdAt,value
2018-06-18T00:01:41.568Z,18.90
2018-06-18T00:04:09.830Z,18.90
2018-06-18T00:06:37.679Z,18.80
2018-06-18T00:09:09.038Z,18.70
2018-06-18T00:11:36.746Z,18.70
2018-06-18T00:14:04.414Z,18.70
2018-06-18T00:16:32.072Z,18.60
2018-06-18T00:21:27.362Z,18.40
2018-06-18T00:23:55.006Z,18.40
2018-06-18T00:26:22.688Z,18.30
2018-06-18T00:28:50.353Z,18.30
2018-06-18T00:31:18.038Z,18.20
2018-06-18T00:33:45.664Z,18.10
2018-06-18T00:36:13.285Z,18.00
2018-06-18T00:38:40.897Z,18.00
2018-06-18T00:41:08.507Z,17.90
2018-06-18T00:43:36.530Z,17.90
2018-06-18T00:46:04.301Z,17.80
2018-06-18T00:48:31.917Z,17.70
2018-06-18T00:50:59.525Z,17.70
2018-06-18T00:53:27.112Z,17.60
2018-06-18T00:56:09.461Z,17.50
2018-06-18T00:58:37.725Z,17.40
2018-06-18T01:01:05.610Z,17.40
2018-06-18T01:03:33.468Z,17.40
2018-06-18T01:06:01.425Z,17.30
2018-06-18T01:08:29.046Z,17.20
2018-06-18T01:10:56.732Z,17.20
2018-06-18T01:13:24.364Z,17.10
2018-06-18T01:15:52.015Z,17.10
2018-06-18T01:18:19.694Z,17.10
2018-06-18T01:20:48.246Z,17.00
2018-06-18T01:25:36.917Z,17.00
2018-06-18T01:28:05.141Z,17.00
2018-06-18T01:30:32.769Z,16.80
2018-06-18T01:33:00.401Z,16.80
2018-06-18T01:35:28.049Z,16.80
2018-06-18T01:37:55.625Z,16.70
2018-06-18T01:40:23.392Z,16.70
2018-06-18T01:42:51.260Z,16.60
2018-06-18T01:45:18.920Z,16.60
2018-06-18T01:47:46.620Z,16.50
2018-06-18T01:50:14.400Z,16.50
2018-06-18T01:52:42.211Z,16.40
2018-06-18T01:55:09.826Z,16.40
2018-06-18T01:57:37.398Z,16.40
2018-06-18T02:00:05.016Z,16.40
2018-06-18T02:02:32.624Z,16.30
2018-06-18T02:05:00.302Z,16.20
2018-06-18T02:07:27.913Z,16.20
2018-06-18T02:09:55.530Z,16.20
2018-06-18T02:12:23.316Z,16.20
2018-06-18T02:14:50.890Z,16.20
2018-06-18T02:17:18.645Z,16.20
2018-06-18T02:19:46.274Z,16.20
2018-06-18T02:22:14.155Z,16.20
2018-06-18T02:24:41.785Z,16.10
2018-06-18T02:27:15.301Z,16.10
2018-06-18T02:29:49.021Z,16.00
2018-06-18T02:32:22.370Z,16.00
2018-06-18T02:34:55.867Z,15.90
2018-06-18T02:37:29.420Z,15.90
2018-06-18T02:40:03.015Z,15.90
2018-06-18T02:42:31.101Z,15.80
2018-06-18T02:44:58.718Z,15.80
2018-06-18T02:47:26.385Z,15.70
2018-06-18T02:52:21.982Z,15.60
2018-06-18T02:54:49.627Z,15.60
2018-06-18T02:57:17.446Z,15.70
2018-06-18T02:59:45.066Z,15.70
2018-06-18T03:02:12.688Z,15.60
2018-06-18T03:04:40.284Z,15.70
2018-06-18T03:07:08.598Z,15.70
2018-06-18T03:09:36.186Z,15.60
2018-06-18T03:12:03.926Z,15.70
2018-06-18T03:14:31.510Z,15.70
2018-06-18T03:16:59.113Z,15.80
2018-06-18T03:19:32.533Z,15.90
2018-06-18T03:22:06.073Z,16.10
2018-06-18T03:24:39.335Z,16.20
2018-06-18T03:27:12.738Z,16.20
2018-06-18T03:29:40.488Z,16.30
2018-06-18T03:32:11.744Z,16.30
2018-06-18T03:34:39.356Z,16.50
2018-06-18T03:37:09.333Z,16.60
2018-06-18T03:42:05.224Z,17.00
2018-06-18T03:45:37.462Z,17.00
2018-06-18T03:48:11.067Z,17.20
2018-06-18T03:50:39.576Z,17.40
2018-06-18T03:53:07.554Z,17.10
2018-06-18T03:55:40.757Z,17.00
2018-06-18T03:58:08.933Z,17.10
2018-06-18T04:00:57.836Z,17.30
2018-06-18T04:06:04.674Z,17.40
2018-06-18T04:08:32.372Z,17.30
2018-06-18T04:11:05.746Z,17.30
2018-06-18T04:13:33.406Z,17.30
2018-06-18T04:16:01.024Z,17.40
2018-06-18T04:20:56.452Z,17.30
2018-06-18T04:23:24.112Z,17.30
2018-06-18T04:25:51.736Z,17.30
2018-06-18T04:28:19.372Z,17.40
2018-06-18T04:30:46.998Z,17.50
2018-06-18T04:33:19.136Z,17.40
2018-06-18T04:35:46.732Z,17.30
2018-06-18T04:38:14.305Z,17.50
2018-06-18T04:40:41.866Z,17.50
2018-06-18T04:43:15.174Z,17.50
2018-06-18T04:45:45.190Z,17.60
2018-06-18T04:48:18.539Z,17.70
2018-06-18T04:50:51.949Z,18.00
2018-06-18T04:53:19.549Z,18.00
2018-06-18T04:55:47.320Z,17.90
2018-06-18T04:58:14.870Z,18.00
2018-06-18T05:01:19.563Z,18.10
2018-06-18T05:03:47.213Z,18.30
2018-06-18T05:06:14.858Z,18.20
2018-06-18T05:10:57.642Z,18.30
2018-06-18T05:13:25.213Z,18.30
2018-06-18T05:15:53.605Z,18.50
2018-06-18T05:18:21.186Z,18.90
2018-06-18T05:20:49.039Z,19.50
2018-06-18T05:23:17.162Z,19.80
2018-06-18T05:25:50.372Z,20.00
2018-06-18T05:28:17.957Z,20.70
2018-06-18T05:30:45.590Z,21.40
2018-06-18T05:33:13.222Z,21.70
2018-06-18T05:38:12.900Z,21.00
2018-06-18T05:40:40.528Z,20.40
2018-06-18T05:43:08.220Z,19.90
2018-06-18T05:45:35.838Z,19.80
2018-06-18T05:48:03.439Z,19.90
2018-06-18T05:50:31.064Z,20.00
2018-06-18T05:52:58.651Z,19.80
2018-06-18T05:55:26.264Z,19.30
2018-06-18T05:57:53.925Z,19.30
2018-06-18T06:00:21.492Z,19.10
2018-06-18T06:02:49.101Z,18.80
2018-06-18T06:05:16.806Z,18.60
2018-06-18T06:07:44.979Z,18.70
2018-06-18T06:10:12.566Z,18.80
2018-06-18T06:12:40.217Z,18.60
2018-06-18T06:15:08.195Z,19.00
2018-06-18T06:20:03.612Z,19.50
2018-06-18T06:22:31.286Z,19.40
2018-06-18T06:24:58.961Z,19.20
2018-06-18T06:29:54.187Z,19.30
2018-06-18T06:32:21.791Z,19.50
2018-06-18T06:34:55.268Z,19.60
2018-06-18T06:37:22.954Z,19.60
2018-06-18T06:39:50.597Z,20.10
2018-06-18T06:42:18.713Z,20.40
2018-06-18T06:44:46.542Z,20.70
2018-06-18T06:47:14.547Z,21.00
2018-06-18T06:49:42.386Z,21.20
2018-06-18T06:52:10.235Z,21.40
2018-06-18T06:54:37.873Z,21.40
2018-06-18T06:57:05.598Z,21.80
2018-06-18T06:59:33.153Z,22.10
2018-06-18T07:02:00.817Z,21.60
2018-06-18T07:04:28.423Z,21.80
2018-06-18T07:06:56.082Z,22.10
2018-06-18T07:09:23.676Z,22.40
2018-06-18T07:11:51.300Z,22.70
2018-06-18T07:14:19.674Z,22.90
2018-06-18T07:16:47.256Z,23.40
2018-06-18T07:19:14.878Z,23.90
2018-06-18T07:21:42.554Z,24.40
2018-06-18T07:24:10.194Z,24.10
2018-06-18T07:26:37.834Z,24.00
2018-06-18T07:29:05.435Z,24.10
2018-06-18T07:31:33.044Z,24.30
2018-06-18T07:34:00.644Z,24.20
2018-06-18T07:36:28.282Z,24.30
2018-06-18T07:38:56.454Z,23.40
2018-06-18T07:41:24.078Z,23.20
2018-06-18T07:43:52.324Z,23.10
2018-06-18T07:46:20.014Z,23.20
2018-06-18T07:48:47.650Z,23.70
2018-06-18T07:51:15.343Z,23.30
2018-06-18T07:53:42.961Z,23.00
2018-06-18T07:56:10.786Z,23.20
2018-06-18T07:58:38.355Z,23.40
2018-06-18T08:01:06.094Z,23.20
2018-06-18T08:03:33.823Z,23.20
2018-06-18T08:06:01.373Z,22.80
2018-06-18T08:08:28.981Z,22.80
2018-06-18T08:10:57.069Z,22.90
2018-06-18T08:13:24.739Z,23.20
2018-06-18T08:15:52.342Z,23.00
2018-06-18T08:18:20.533Z,23.10
2018-06-18T08:20:48.197Z,23.20
2018-06-18T08:23:15.887Z,23.20
2018-06-18T08:25:43.483Z,23.20
2018-06-18T08:28:11.140Z,23.60
2018-06-18T08:30:38.782Z,24.00
2018-06-18T08:33:06.666Z,23.90
2018-06-18T08:35:34.516Z,23.80
2018-06-18T08:38:02.152Z,23.50
2018-06-18T08:40:29.785Z,23.90
2018-06-18T08:42:58.114Z,24.30
2018-06-18T08:45:26.202Z,23.70
2018-06-18T08:47:54.627Z,23.50
2018-06-18T08:50:27.939Z,23.50
2018-06-18T08:53:01.413Z,23.50
2018-06-18T08:55:34.782Z,23.10
2018-06-18T08:58:08.233Z,22.20
2018-06-18T09:00:41.699Z,22.20
2018-06-18T09:03:16.039Z,22.40
2018-06-18T09:05:53.178Z,22.00
2018-06-18T09:08:23.320Z,22.10
2018-06-18T09:10:51.782Z,22.20
2018-06-18T09:13:19.418Z,22.30
2018-06-18T09:15:47.030Z,22.00
2018-06-18T09:18:14.621Z,22.00
2018-06-18T09:20:42.324Z,21.80
2018-06-18T09:23:09.949Z,21.50
2018-06-18T09:25:46.291Z,21.60
2018-06-18T09:28:14.841Z,21.50
2018-06-18T09:30:42.496Z,21.30
2018-06-18T09:33:10.125Z,21.30
2018-06-18T09:38:05.468Z,22.30
2018-06-18T09:40:33.349Z,22.20
2018-06-18T09:43:00.969Z,22.60
2018-06-18T09:45:28.635Z,22.80
2018-06-18T09:47:57.888Z,22.90
2018-06-18T09:50:31.506Z,23.20
2018-06-18T09:53:05.015Z,23.50
2018-06-18T09:55:38.484Z,23.60
2018-06-18T09:58:11.741Z,23.40
2018-06-18T10:01:01.117Z,23.10
2018-06-18T10:03:28.751Z,22.90
2018-06-18T10:05:56.427Z,22.80
2018-06-18T10:08:24.240Z,22.70
2018-06-18T10:10:52.093Z,22.80
2018-06-18T10:13:19.756Z,23.10
2018-06-18T10:15:47.406Z,22.70
2018-06-18T10:20:49.705Z,22.00
2018-06-18T10:23:17.363Z,22.80
2018-06-18T10:25:44.962Z,23.40
2018-06-18T10:28:12.619Z,24.00
2018-06-18T10:30:40.246Z,24.50
2018-06-18T10:33:13.583Z,24.80
2018-06-18T10:35:47.114Z,24.40
2018-06-18T10:38:20.683Z,24.90
2018-06-18T10:40:54.045Z,24.70
2018-06-18T10:43:38.026Z,24.40
2018-06-18T10:46:05.826Z,24.20
2018-06-18T10:48:33.420Z,24.70
2018-06-18T10:51:01.248Z,24.90
2018-06-18T10:53:28.882Z,24.90
2018-06-18T10:55:56.807Z,24.60
2018-06-18T10:58:24.497Z,24.30
2018-06-18T11:01:13.475Z,24.40
2018-06-18T11:03:41.231Z,23.90
2018-06-18T11:06:14.797Z,24.30
2018-06-18T11:08:42.759Z,24.70
2018-06-18T11:11:10.683Z,23.90
2018-06-18T11:13:38.714Z,23.70
2018-06-18T11:16:06.881Z,24.10
2018-06-18T11:18:40.614Z,23.80
2018-06-18T11:21:14.432Z,23.40
2018-06-18T11:23:47.836Z,23.30
2018-06-18T11:26:21.259Z,23.50
2018-06-18T11:28:48.980Z,23.30
2018-06-18T11:31:16.633Z,23.80
2018-06-18T11:33:44.347Z,24.20
2018-06-18T11:36:12.011Z,24.50
2018-06-18T11:38:39.680Z,24.70
2018-06-18T11:41:07.334Z,25.80
2018-06-18T11:43:35.028Z,26.10
2018-06-18T11:46:02.754Z,25.80
2018-06-18T11:48:30.406Z,25.50
2018-06-18T11:50:58.014Z,25.00
2018-06-18T11:53:25.605Z,25.10
2018-06-18T11:55:53.244Z,25.70
2018-06-18T11:58:26.510Z,25.80
2018-06-18T12:01:00.030Z,26.00
2018-06-18T12:03:33.425Z,26.00
2018-06-18T12:08:14.171Z,25.50
2018-06-18T12:10:41.815Z,24.90
2018-06-18T12:13:09.765Z,25.10
2018-06-18T12:15:37.395Z,25.40
2018-06-18T12:18:05.103Z,25.70
2018-06-18T12:20:32.730Z,25.50
2018-06-18T12:23:00.794Z,25.90
2018-06-18T12:25:28.438Z,26.10
2018-06-18T12:27:56.153Z,26.90
2018-06-18T12:30:23.819Z,27.60
2018-06-18T12:32:51.418Z,27.10
2018-06-18T12:37:47.016Z,24.80
2018-06-18T12:40:14.626Z,24.40
2018-06-18T12:42:42.478Z,24.90
2018-06-18T12:45:18.793Z,25.10
2018-06-18T12:47:53.701Z,24.40
2018-06-18T12:50:27.365Z,25.00
2018-06-18T12:53:00.893Z,28.50
2018-06-18T12:55:34.842Z,30.40
2018-06-18T12:58:02.465Z,30.60
2018-06-18T13:00:30.375Z,30.60
2018-06-18T13:03:06.340Z,31.20
2018-06-18T13:05:33.920Z,30.40
2018-06-18T13:08:03.840Z,32.00
2018-06-18T13:10:33.832Z,33.60
2018-06-18T13:13:01.777Z,36.30
2018-06-18T13:15:29.604Z,37.20
2018-06-18T13:20:25.269Z,37.20
2018-06-18T13:22:53.620Z,38.40
2018-06-18T13:25:21.213Z,37.60
2018-06-18T13:27:54.469Z,36.00
2018-06-18T13:30:22.235Z,36.60
2018-06-18T13:32:49.885Z,38.80
2018-06-18T13:35:17.490Z,38.20
2018-06-18T13:37:50.738Z,36.90
2018-06-18T13:40:24.088Z,33.50
2018-06-18T13:42:57.654Z,30.80
2018-06-18T13:45:30.916Z,29.90
2018-06-18T13:49:04.321Z,33.00
2018-06-18T13:51:31.951Z,35.90
2018-06-18T13:53:59.590Z,37.80
2018-06-18T13:56:27.233Z,36.40
2018-06-18T13:58:55.162Z,34.10
2018-06-18T14:01:22.857Z,32.20
2018-06-18T14:03:50.647Z,30.30
2018-06-18T14:06:18.239Z,29.60
2018-06-18T14:08:46.868Z,29.50
2018-06-18T14:11:14.537Z,28.50
2018-06-18T14:13:42.266Z,27.80
2018-06-18T14:16:09.919Z,27.80
2018-06-18T14:18:38.071Z,27.70
2018-06-18T14:21:05.753Z,27.10
2018-06-18T14:23:33.353Z,27.00
2018-06-18T14:26:01.001Z,27.00
2018-06-18T14:28:28.620Z,26.90
2018-06-18T14:31:02.060Z,26.90
2018-06-18T14:33:35.265Z,26.90
2018-06-18T14:36:08.694Z,26.70
2018-06-18T14:38:41.905Z,26.30
2018-06-18T14:41:10.267Z,25.80
2018-06-18T14:43:38.080Z,25.20
2018-06-18T14:46:05.804Z,25.30
2018-06-18T14:48:33.442Z,24.90
2018-06-18T14:51:00.948Z,25.00
2018-06-18T14:53:28.547Z,24.70
2018-06-18T14:56:26.835Z,25.00
2018-06-18T14:59:06.075Z,24.80
2018-06-18T15:01:33.700Z,24.60
2018-06-18T15:04:01.646Z,24.70
2018-06-18T15:06:29.418Z,25.10
2018-06-18T15:08:58.145Z,25.00
2018-06-18T15:11:25.746Z,24.90
2018-06-18T15:13:53.567Z,24.90
2018-06-18T15:16:25.237Z,24.90
2018-06-18T15:18:52.842Z,25.10
2018-06-18T15:21:20.500Z,25.20
2018-06-18T15:23:48.088Z,25.00
2018-06-18T15:26:15.830Z,25.20
2018-06-18T15:28:43.394Z,25.60
2018-06-18T15:31:11.040Z,26.20
2018-06-18T15:33:38.765Z,26.50
2018-06-18T15:36:06.527Z,26.30
2018-06-18T15:38:34.305Z,26.40
2018-06-18T15:41:01.914Z,26.60
2018-06-18T15:43:29.629Z,26.50
2018-06-18T15:45:57.514Z,26.50
2018-06-18T15:48:25.122Z,26.50
2018-06-18T15:50:52.762Z,26.90
2018-06-18T15:53:20.419Z,28.10
2018-06-18T15:55:48.057Z,28.50
2018-06-18T15:58:15.651Z,27.40
2018-06-18T16:00:43.296Z,28.20
2018-06-18T16:03:10.925Z,27.60
2018-06-18T16:05:38.479Z,28.10
2018-06-18T16:08:06.082Z,28.40
2018-06-18T16:10:33.926Z,29.00
2018-06-18T16:13:01.554Z,29.20
2018-06-18T16:15:29.184Z,29.30
2018-06-18T16:17:56.817Z,30.30
2018-06-18T16:20:24.482Z,31.20
2018-06-18T16:22:52.244Z,33.30
2018-06-18T16:25:19.882Z,33.20
2018-06-18T16:27:47.554Z,33.30
2018-06-18T16:30:15.304Z,32.80
2018-06-18T16:32:42.963Z,34.40
2018-06-18T16:35:10.602Z,35.40
2018-06-18T16:37:38.343Z,35.70
2018-06-18T16:40:06.013Z,35.50
2018-06-18T16:42:33.605Z,36.10
2018-06-18T16:45:01.202Z,34.60
2018-06-18T16:47:28.853Z,32.20
2018-06-18T16:52:24.225Z,28.90
2018-06-18T16:54:52.119Z,29.10
2018-06-18T16:57:19.721Z,28.90
2018-06-18T16:59:48.267Z,28.40
2018-06-18T17:02:15.926Z,28.40
2018-06-18T17:04:43.509Z,28.30
2018-06-18T17:07:11.156Z,28.00
2018-06-18T17:09:38.798Z,27.70
2018-06-18T17:12:06.358Z,27.60
2018-06-18T17:14:34.054Z,27.30
2018-06-18T17:17:01.683Z,27.00
2018-06-18T17:19:29.432Z,26.80
2018-06-18T17:21:57.085Z,26.30
2018-06-18T17:24:24.881Z,25.70
2018-06-18T17:26:52.890Z,25.50
2018-06-18T17:29:20.675Z,25.10
2018-06-18T17:31:48.480Z,25.00
2018-06-18T17:34:16.174Z,25.00
2018-06-18T17:36:43.999Z,24.70
2018-06-18T17:39:12.832Z,24.50
2018-06-18T17:41:40.651Z,24.30
2018-06-18T17:44:08.405Z,24.30
2018-06-18T17:46:36.597Z,24.30
2018-06-18T17:49:05.594Z,24.20
2018-06-18T17:51:33.280Z,24.10
2018-06-18T17:54:00.920Z,25.20
2018-06-18T17:56:28.750Z,27.50
2018-06-18T17:58:56.437Z,29.40
2018-06-18T18:01:24.114Z,29.50
2018-06-18T18:03:51.838Z,28.60
2018-06-18T18:06:19.527Z,27.50
2018-06-18T18:08:47.332Z,26.90
2018-06-18T18:11:15.379Z,27.00
2018-06-18T18:13:42.920Z,26.90
2018-06-18T18:16:11.227Z,27.60
2018-06-18T18:18:38.853Z,27.60
2018-06-18T18:21:06.529Z,27.10
2018-06-18T18:23:34.387Z,28.20
2018-06-18T18:26:01.996Z,28.00
2018-06-18T18:28:29.697Z,27.20
2018-06-18T18:30:57.339Z,26.60
2018-06-18T18:33:24.999Z,26.00
2018-06-18T18:35:53.125Z,26.20
2018-06-18T18:38:20.919Z,25.60
2018-06-18T18:40:49.303Z,25.60
2018-06-18T18:43:17.120Z,25.50
2018-06-18T18:45:44.739Z,25.20
2018-06-18T18:50:40.202Z,23.90
2018-06-18T18:53:07.832Z,23.60
2018-06-18T18:57:48.962Z,23.10
2018-06-18T19:00:16.649Z,22.90
2018-06-18T19:02:44.324Z,22.40
2018-06-18T19:05:11.977Z,22.20
2018-06-18T19:07:42.944Z,22.20
2018-06-18T19:10:22.861Z,22.00
2018-06-18T19:12:53.202Z,21.80
2018-06-18T19:15:21.282Z,21.60
2018-06-18T19:17:48.985Z,21.50
2018-06-18T19:20:25.930Z,21.40
2018-06-18T19:22:53.577Z,21.30
2018-06-18T19:25:21.217Z,21.20
2018-06-18T19:27:48.915Z,21.10
2018-06-18T19:30:16.633Z,21.00
2018-06-18T19:32:44.879Z,20.90
2018-06-18T19:35:13.225Z,20.80
2018-06-18T19:37:41.483Z,20.60
2018-06-18T19:40:09.195Z,20.50
2018-06-18T19:42:37.123Z,20.50
2018-06-18T19:45:09.284Z,20.40
2018-06-18T19:47:49.672Z,20.30
2018-06-18T19:50:18.033Z,20.30
2018-06-18T19:52:46.899Z,20.30
2018-06-18T19:55:19.756Z,20.20
2018-06-18T19:57:47.817Z,20.10
2018-06-18T20:00:15.860Z,20.10
2018-06-18T20:02:43.610Z,20.00
2018-06-18T20:05:12.306Z,19.90
2018-06-18T20:12:04.560Z,19.60
2018-06-18T20:14:32.289Z,19.50
2018-06-18T20:17:00.050Z,19.50
2018-06-18T20:19:27.860Z,19.50
2018-06-18T20:21:55.544Z,19.50
2018-06-18T20:24:23.277Z,19.40
2018-06-18T20:26:50.953Z,19.30
2018-06-18T20:29:18.538Z,19.30
2018-06-18T20:31:46.319Z,19.30
2018-06-18T20:34:14.003Z,19.20
2018-06-18T20:43:38.317Z,19.10
2018-06-18T20:46:06.218Z,18.80
2018-06-18T20:48:33.822Z,18.80
2018-06-18T20:51:01.466Z,18.80
2018-06-18T20:53:29.117Z,18.80
2018-06-18T20:55:56.973Z,18.80
2018-06-18T20:58:24.649Z,18.70
2018-06-18T21:00:52.333Z,18.80
2018-06-18T21:03:19.987Z,18.80
2018-06-18T21:05:47.567Z,18.90
2018-06-18T21:08:15.181Z,18.90
2018-06-18T21:10:42.895Z,19.00
2018-06-18T21:13:10.526Z,19.00
2018-06-18T21:15:38.181Z,19.00
2018-06-18T21:18:06.087Z,19.10
2018-06-18T21:20:33.743Z,19.10
2018-06-18T21:23:01.382Z,19.10
2018-06-18T21:25:29.037Z,19.10
2018-06-18T21:27:56.658Z,19.10
2018-06-18T21:30:24.291Z,19.10
2018-06-18T21:32:51.852Z,19.00
2018-06-18T21:35:19.531Z,19.10
2018-06-18T21:37:47.837Z,19.10
2018-06-18T21:40:15.435Z,19.10
2018-06-18T21:42:43.124Z,19.10
2018-06-18T21:45:19.263Z,19.10
2018-06-18T21:47:47.494Z,19.10
2018-06-18T21:50:15.486Z,19.10
2018-06-18T21:52:43.200Z,19.10
2018-06-18T21:55:10.865Z,19.10
2018-06-18T21:57:38.714Z,19.10
2018-06-18T22:02:53.673Z,19.10
2018-06-18T22:05:21.389Z,19.10
2018-06-18T22:10:16.763Z,19.00
2018-06-18T22:12:44.411Z,18.90
2018-06-18T22:15:12.137Z,19.00
2018-06-18T22:17:39.764Z,18.90
2018-06-18T22:20:07.418Z,18.90
2018-06-18T22:22:35.250Z,18.80
2018-06-18T22:25:02.950Z,18.80
2018-06-18T22:27:30.643Z,18.80
2018-06-18T22:29:58.306Z,18.80
2018-06-18T22:32:26.197Z,18.80
2018-06-18T22:34:53.794Z,18.80
2018-06-18T22:37:21.530Z,18.80
2018-06-18T22:39:56.017Z,18.80
2018-06-18T22:42:23.622Z,18.80
2018-06-18T22:44:52.165Z,18.80
2018-06-18T22:47:19.815Z,18.70
2018-06-18T22:49:47.446Z,18.70
2018-06-18T22:52:15.196Z,18.70
2018-06-18T22:54:46.201Z,18.70
2018-06-18T22:57:14.335Z,18.70
2018-06-18T22:59:41.949Z,18.70
2018-06-18T23:02:10.725Z,18.70
2018-06-18T23:04:38.343Z,18.70
2018-06-18T23:07:06.505Z,18.80
2018-06-18T23:09:34.149Z,18.80
2018-06-18T23:12:01.765Z,18.80
2018-06-18T23:14:29.376Z,18.70
2018-06-18T23:16:56.920Z,18.70
2018-06-18T23:19:24.537Z,18.80
2018-06-18T23:21:52.142Z,18.80
2018-06-18T23:24:19.734Z,18.80
2018-06-18T23:26:47.379Z,18.80
2018-06-18T23:29:16.942Z,18.70
2018-06-18T23:31:44.654Z,18.80
2018-06-18T23:34:12.853Z,18.80
2018-06-18T23:36:40.562Z,18.80
2018-06-18T23:39:09.695Z,18.80
2018-06-18T23:41:41.451Z,18.80
2018-06-18T23:44:09.124Z,18.80
2018-06-18T23:46:36.881Z,18.80
2018-06-18T23:49:04.945Z,18.90
2018-06-18T23:51:32.639Z,18.80
2018-06-18T23:54:00.306Z,18.80
2018-06-18T23:56:28.278Z,18.70
2018-06-18T23:58:55.877Z,18.60
